createdAt,value
2018-05-12T00:00:22.844Z,16.50
2018-05-12T00:02:50.294Z,16.50
2018-05-12T00:05:17.768Z,16.30
2018-05-12T00:07:45.225Z,16.20
2018-05-12T00:10:12.684Z,16.10
2018-05-12T00:12:40.165Z,16.10
2018-05-12T00:15:07.616Z,16.20
2018-05-12T00:17:35.083Z,16.30
2018-05-12T00:20:02.581Z,16.40
2018-05-12T00:22:30.049Z,16.40
2018-05-12T00:24:57.484Z,16.40
2018-05-12T00:27:24.957Z,16.50
2018-05-12T00:29:52.406Z,16.40
2018-05-12T00:32:19.930Z,16.50
2018-05-12T00:34:47.367Z,16.40
2018-05-12T00:37:14.944Z,16.50
2018-05-12T00:39:43.169Z,16.60
2018-05-12T00:42:10.618Z,16.50
2018-05-12T00:44:38.064Z,16.60
2018-05-12T00:47:05.599Z,16.60
2018-05-12T00:49:33.054Z,16.50
2018-05-12T00:52:00.539Z,16.40
2018-05-12T00:54:28.014Z,16.50
2018-05-12T00:56:55.464Z,16.50
2018-05-12T00:59:22.977Z,16.50
2018-05-12T01:01:50.452Z,16.60
2018-05-12T01:04:18.699Z,16.50
2018-05-12T01:06:46.162Z,16.50
2018-05-12T01:09:13.723Z,16.50
2018-05-12T01:11:42.688Z,16.30
2018-05-12T01:14:10.161Z,16.40
2018-05-12T01:16:37.625Z,16.30
2018-05-12T01:19:05.189Z,16.20
2018-05-12T01:21:32.630Z,16.20
2018-05-12T01:24:00.076Z,16.10
2018-05-12T01:26:27.527Z,16.00
2018-05-12T01:28:54.982Z,16.00
2018-05-12T01:31:22.464Z,15.90
2018-05-12T01:33:49.947Z,15.80
2018-05-12T01:36:18.175Z,15.80
2018-05-12T01:38:45.617Z,15.70
2018-05-12T01:41:13.094Z,15.70
2018-05-12T01:43:40.679Z,15.60
2018-05-12T01:46:08.143Z,15.60
2018-05-12T01:48:35.699Z,15.60
2018-05-12T01:51:03.147Z,15.50
2018-05-12T01:53:30.592Z,15.50
2018-05-12T01:55:58.051Z,15.40
2018-05-12T01:58:25.516Z,15.40
2018-05-12T02:00:53.770Z,15.30
2018-05-12T02:03:21.238Z,15.20
2018-05-12T02:05:49.484Z,15.10
2018-05-12T02:08:17.034Z,15.00
2018-05-12T02:10:44.520Z,15.00
2018-05-12T02:13:12.049Z,14.90
2018-05-12T02:15:39.495Z,15.00
2018-05-12T02:18:06.956Z,14.90
2018-05-12T02:20:34.419Z,14.80
2018-05-12T02:23:01.886Z,14.70
2018-05-12T02:25:29.374Z,14.70
2018-05-12T02:27:56.843Z,14.70
2018-05-12T02:30:24.307Z,14.60
2018-05-12T02:32:51.777Z,14.60
2018-05-12T02:35:20.012Z,14.60
2018-05-12T02:37:47.486Z,14.60
2018-05-12T02:40:15.072Z,14.70
2018-05-12T02:42:43.303Z,14.60
2018-05-12T02:45:10.759Z,14.60
2018-05-12T02:47:38.205Z,14.70
2018-05-12T02:50:05.661Z,14.70
2018-05-12T02:52:33.138Z,14.80
2018-05-12T02:55:00.589Z,14.70
2018-05-12T02:57:28.060Z,14.70
2018-05-12T02:59:55.628Z,14.70
2018-05-12T03:02:23.162Z,14.70
2018-05-12T03:04:50.723Z,14.70
2018-05-12T03:07:18.192Z,14.60
2018-05-12T03:09:45.652Z,14.50
2018-05-12T03:12:13.196Z,14.50
2018-05-12T03:14:40.781Z,14.50
2018-05-12T03:17:08.313Z,14.30
2018-05-12T03:19:35.780Z,14.40
2018-05-12T03:22:03.251Z,14.40
2018-05-12T03:24:30.788Z,14.20
2018-05-12T03:26:58.239Z,14.30
2018-05-12T03:29:25.770Z,14.30
2018-05-12T03:31:53.279Z,14.30
2018-05-12T03:34:20.753Z,14.40
2018-05-12T03:36:48.969Z,14.40
2018-05-12T03:39:16.451Z,14.40
2018-05-12T03:41:43.974Z,14.40
2018-05-12T03:44:11.412Z,14.30
2018-05-12T03:46:38.950Z,14.30
2018-05-12T03:49:06.383Z,14.40
2018-05-12T03:51:33.938Z,14.50
2018-05-12T03:54:01.395Z,14.50
2018-05-12T03:56:28.843Z,14.30
2018-05-12T03:58:56.321Z,14.30
2018-05-12T04:01:23.772Z,14.10
2018-05-12T04:03:51.324Z,14.10
2018-05-12T04:06:30.623Z,14.10
2018-05-12T04:09:09.983Z,14.20
2018-05-12T04:11:49.475Z,14.20
2018-05-12T04:14:17.697Z,14.10
2018-05-12T04:16:45.182Z,14.10
2018-05-12T04:19:12.743Z,14.10
2018-05-12T04:21:40.247Z,14.20
2018-05-12T04:24:07.714Z,14.30
2018-05-12T04:26:35.173Z,14.20
2018-05-12T04:29:02.723Z,14.20
2018-05-12T04:31:30.209Z,14.30
2018-05-12T04:33:57.680Z,14.30
2018-05-12T04:36:25.229Z,14.30
2018-05-12T04:38:52.696Z,14.30
2018-05-12T04:41:20.241Z,14.30
2018-05-12T04:43:47.724Z,14.30
2018-05-12T04:46:15.205Z,14.30
2018-05-12T04:48:43.429Z,14.00
2018-05-12T04:51:10.876Z,14.00
2018-05-12T04:53:38.381Z,14.10
2018-05-12T04:56:06.588Z,14.10
2018-05-12T04:58:34.077Z,14.10
2018-05-12T05:01:01.604Z,14.10
2018-05-12T05:03:29.065Z,14.10
2018-05-12T05:05:56.539Z,14.10
2018-05-12T05:08:24.007Z,14.10
2018-05-12T05:10:51.480Z,14.10
2018-05-12T05:13:18.937Z,14.00
2018-05-12T05:15:46.375Z,14.10
2018-05-12T05:18:13.860Z,14.20
2018-05-12T05:20:41.418Z,14.20
2018-05-12T05:23:08.860Z,14.10
2018-05-12T05:25:36.327Z,14.20
2018-05-12T05:28:03.779Z,14.20
2018-05-12T05:30:31.359Z,14.30
2018-05-12T05:32:59.591Z,14.30
2018-05-12T05:35:27.078Z,14.20
2018-05-12T05:37:55.702Z,14.50
2018-05-12T05:40:24.051Z,14.60
2018-05-12T05:42:52.317Z,14.70
2018-05-12T05:45:19.848Z,14.70
2018-05-12T05:47:47.304Z,14.70
2018-05-12T05:50:14.766Z,14.90
2018-05-12T05:52:42.239Z,15.00
2018-05-12T05:55:09.780Z,15.10
2018-05-12T05:57:37.276Z,15.20
2018-05-12T06:00:05.511Z,15.50
2018-05-12T06:02:32.980Z,15.50
2018-05-12T06:05:00.461Z,15.60
2018-05-12T06:07:27.900Z,15.70
2018-05-12T06:09:55.360Z,15.90
2018-05-12T06:12:22.923Z,16.00
2018-05-12T06:14:50.397Z,16.10
2018-05-12T06:17:17.836Z,16.20
2018-05-12T06:19:45.405Z,16.30
2018-05-12T06:22:13.722Z,16.60
2018-05-12T06:24:41.209Z,16.60
2018-05-12T06:27:08.684Z,16.80
2018-05-12T06:29:36.190Z,16.80
2018-05-12T06:32:03.666Z,17.10
2018-05-12T06:34:31.114Z,17.10
2018-05-12T06:36:58.617Z,17.40
2018-05-12T06:39:26.075Z,17.70
2018-05-12T06:41:53.543Z,17.90
2018-05-12T06:44:21.754Z,18.30
2018-05-12T06:46:49.196Z,18.30
2018-05-12T06:49:16.741Z,18.70
2018-05-12T06:51:44.973Z,19.90
2018-05-12T06:54:12.500Z,19.80
2018-05-12T06:56:40.016Z,20.30
2018-05-12T06:59:07.513Z,20.40
2018-05-12T07:01:35.012Z,20.40
2018-05-12T07:04:02.461Z,21.00
2018-05-12T07:06:29.949Z,21.30
2018-05-12T07:08:58.203Z,21.40
2018-05-12T07:11:25.669Z,21.40
2018-05-12T07:13:53.124Z,21.70
2018-05-12T07:16:20.603Z,21.80
2018-05-12T07:18:48.911Z,22.90
2018-05-12T07:21:16.351Z,22.80
2018-05-12T07:23:43.820Z,23.20
2018-05-12T07:26:11.367Z,23.70
2018-05-12T07:28:38.868Z,23.70
2018-05-12T07:31:06.313Z,23.70
2018-05-12T07:33:33.787Z,23.70
2018-05-12T07:36:01.252Z,23.90
2018-05-12T07:38:29.462Z,24.70
2018-05-12T07:40:56.973Z,24.60
2018-05-12T07:43:24.443Z,25.30
2018-05-12T07:45:52.674Z,25.10
2018-05-12T07:48:20.185Z,25.10
2018-05-12T07:50:47.728Z,25.10
2018-05-12T07:53:15.166Z,25.70
2018-05-12T07:55:42.645Z,26.30
2018-05-12T07:58:10.100Z,26.30
2018-05-12T08:00:37.655Z,26.30
2018-05-12T08:03:05.151Z,26.80
2018-05-12T08:05:33.362Z,27.10
2018-05-12T08:08:00.832Z,27.10
2018-05-12T08:10:28.315Z,27.50
2018-05-12T08:12:55.810Z,27.00
2018-05-12T08:15:23.212Z,27.50
2018-05-12T08:17:50.681Z,27.50
2018-05-12T08:20:18.156Z,28.00
2018-05-12T08:22:46.372Z,27.60
2018-05-12T08:25:13.843Z,27.60
2018-05-12T08:27:41.440Z,28.40
2018-05-12T08:30:08.916Z,29.30
2018-05-12T08:32:37.150Z,29.80
2018-05-12T08:35:04.698Z,29.70
2018-05-12T08:37:32.182Z,30.00
2018-05-12T08:39:59.724Z,30.10
2018-05-12T08:42:27.227Z,30.50
2018-05-12T08:44:54.688Z,31.40
2018-05-12T08:47:22.545Z,31.40
2018-05-12T08:49:50.802Z,31.40
2018-05-12T08:52:18.251Z,31.40
2018-05-12T08:54:45.733Z,31.40
2018-05-12T08:57:13.952Z,32.70
2018-05-12T08:59:41.419Z,32.70
2018-05-12T09:02:08.919Z,32.70
2018-05-12T09:04:37.179Z,31.90
2018-05-12T09:07:04.786Z,31.80
2018-05-12T09:09:32.982Z,32.60
2018-05-12T09:12:00.486Z,32.60
2018-05-12T09:14:28.717Z,32.50
2018-05-12T09:16:56.204Z,32.50
2018-05-12T09:19:23.716Z,32.70
2018-05-12T09:21:51.129Z,32.30
2018-05-12T09:24:19.365Z,32.10
2018-05-12T09:26:46.861Z,32.00
2018-05-12T09:29:14.300Z,32.20
2018-05-12T09:31:42.534Z,34.40
2018-05-12T09:34:10.055Z,34.30
2018-05-12T09:36:38.279Z,34.80
2018-05-12T09:39:05.738Z,34.80
2018-05-12T09:41:33.209Z,34.70
2018-05-12T09:44:00.690Z,33.70
2018-05-12T09:46:28.171Z,33.30
2018-05-12T09:48:56.388Z,33.70
2018-05-12T09:51:23.892Z,33.70
2018-05-12T09:53:51.410Z,33.80
2018-05-12T09:56:18.860Z,33.00
2018-05-12T09:58:46.361Z,33.10
2018-05-12T10:01:14.578Z,33.30
2018-05-12T10:03:42.058Z,33.30
2018-05-12T10:06:09.544Z,33.30
2018-05-12T10:08:37.965Z,33.30
2018-05-12T10:11:05.471Z,33.30
2018-05-12T10:13:32.923Z,33.90
2018-05-12T10:16:00.394Z,33.90
2018-05-12T10:18:28.634Z,34.40
2018-05-12T10:20:56.091Z,34.40
2018-05-12T10:23:23.552Z,34.80
2018-05-12T10:25:51.004Z,34.90
2018-05-12T10:28:18.478Z,35.60
2018-05-12T10:30:46.057Z,36.20
2018-05-12T10:33:13.503Z,34.90
2018-05-12T10:35:40.976Z,34.30
2018-05-12T10:38:09.190Z,33.10
2018-05-12T10:40:36.667Z,33.10
2018-05-12T10:43:04.112Z,33.80
2018-05-12T10:45:31.576Z,34.40
2018-05-12T10:47:59.019Z,35.10
2018-05-12T10:50:26.487Z,35.40
2018-05-12T10:52:53.966Z,35.70
2018-05-12T10:55:21.404Z,35.80
2018-05-12T10:57:48.855Z,34.60
2018-05-12T11:00:16.327Z,34.90
2018-05-12T11:02:43.823Z,34.80
2018-05-12T11:05:12.055Z,35.80
2018-05-12T11:07:39.625Z,35.70
2018-05-12T11:10:07.103Z,35.10
2018-05-12T11:12:34.566Z,34.60
2018-05-12T11:15:02.775Z,36.50
2018-05-12T11:17:30.276Z,36.50
2018-05-12T11:19:57.723Z,36.20
2018-05-12T11:22:25.188Z,36.50
2018-05-12T11:24:52.635Z,37.00
2018-05-12T11:27:20.107Z,34.80
2018-05-12T11:29:47.682Z,35.00
2018-05-12T11:32:15.918Z,34.90
2018-05-12T11:34:43.412Z,34.90
2018-05-12T11:37:10.911Z,35.90
2018-05-12T11:39:38.351Z,35.00
2018-05-12T11:42:05.809Z,34.90
2018-05-12T11:44:33.329Z,35.30
2018-05-12T11:47:00.749Z,36.40
2018-05-12T11:49:28.257Z,36.40
2018-05-12T11:51:55.728Z,36.00
2018-05-12T11:54:23.950Z,35.00
2018-05-12T11:56:51.425Z,34.90
2018-05-12T11:59:18.872Z,34.50
2018-05-12T12:01:46.343Z,34.50
2018-05-12T12:04:13.789Z,35.50
2018-05-12T12:06:41.259Z,36.00
2018-05-12T12:09:08.719Z,36.30
2018-05-12T12:11:36.194Z,37.00
2018-05-12T12:14:04.421Z,36.10
2018-05-12T12:16:31.877Z,36.00
2018-05-12T12:18:59.356Z,36.10
2018-05-12T12:21:26.831Z,36.20
2018-05-12T12:23:54.280Z,35.80
2018-05-12T12:26:21.788Z,35.20
2018-05-12T12:28:49.257Z,34.40
2018-05-12T12:31:16.702Z,34.90
2018-05-12T12:33:44.178Z,35.70
2018-05-12T12:36:11.626Z,35.70
2018-05-12T12:38:39.118Z,35.50
2018-05-12T12:41:06.577Z,35.00
2018-05-12T12:43:34.192Z,35.30
2018-05-12T12:46:01.630Z,35.30
2018-05-12T12:48:29.073Z,35.50
2018-05-12T12:50:57.309Z,34.20
2018-05-12T12:53:24.793Z,34.20
2018-05-12T12:55:52.258Z,34.40
2018-05-12T12:58:20.558Z,33.70
2018-05-12T13:00:47.978Z,33.60
2018-05-12T13:03:15.450Z,33.90
2018-05-12T13:05:42.915Z,33.50
2018-05-12T13:08:11.175Z,33.50
2018-05-12T13:10:38.638Z,33.50
2018-05-12T13:13:06.895Z,32.70
2018-05-12T13:15:34.366Z,32.70
2018-05-12T13:18:02.619Z,31.50
2018-05-12T13:20:30.068Z,31.40
2018-05-12T13:22:57.563Z,31.50
2018-05-12T13:25:25.778Z,31.00
2018-05-12T13:27:53.272Z,30.90
2018-05-12T13:30:20.717Z,31.00
2018-05-12T13:32:48.178Z,30.80
2018-05-12T13:35:15.650Z,30.90
2018-05-12T13:37:43.154Z,31.20
2018-05-12T13:40:10.610Z,31.00
2018-05-12T13:42:38.054Z,30.30
2018-05-12T13:45:05.531Z,29.90
2018-05-12T13:47:33.008Z,29.90
2018-05-12T13:52:34.469Z,29.40
2018-05-12T13:55:01.934Z,29.30
2018-05-12T13:57:29.383Z,29.50
2018-05-12T13:59:56.843Z,29.70
2018-05-12T14:02:24.310Z,29.40
2018-05-12T14:04:51.890Z,29.30
2018-05-12T14:07:20.207Z,29.70
2018-05-12T14:09:47.637Z,29.70
2018-05-12T14:12:15.861Z,29.50
2018-05-12T14:14:43.335Z,29.50
2018-05-12T14:17:10.787Z,29.70
2018-05-12T14:19:38.242Z,29.50
2018-05-12T14:22:05.691Z,29.40
2018-05-12T14:24:33.139Z,29.10
2018-05-12T14:27:00.623Z,29.50
2018-05-12T14:29:28.106Z,29.20
2018-05-12T14:31:55.544Z,29.30
2018-05-12T14:34:22.999Z,29.30
2018-05-12T14:36:50.471Z,28.90
2018-05-12T14:39:17.947Z,28.90
2018-05-12T14:41:46.151Z,28.90
2018-05-12T14:44:13.658Z,28.90
2018-05-12T14:46:41.103Z,29.00
2018-05-12T14:49:08.581Z,29.40
2018-05-12T14:51:36.851Z,29.10
2018-05-12T14:54:04.297Z,29.10
2018-05-12T14:56:31.793Z,29.00
2018-05-12T14:58:59.250Z,29.20
2018-05-12T15:01:26.704Z,29.10
2018-05-12T15:03:54.179Z,29.20
2018-05-12T15:06:21.652Z,28.80
2018-05-12T15:08:49.098Z,28.40
2018-05-12T15:11:16.568Z,28.20
2018-05-12T15:13:44.047Z,28.30
2018-05-12T15:16:11.516Z,28.30
2018-05-12T15:18:38.982Z,28.10
2018-05-12T15:21:07.220Z,27.90
2018-05-12T15:23:34.661Z,27.90
2018-05-12T15:26:02.129Z,27.80
2018-05-12T15:28:29.595Z,27.60
2018-05-12T15:30:57.034Z,27.40
2018-05-12T15:33:24.494Z,27.30
2018-05-12T15:35:51.946Z,27.10
2018-05-12T15:38:19.422Z,27.20
2018-05-12T15:40:46.991Z,26.90
2018-05-12T15:43:14.447Z,26.80
2018-05-12T15:45:41.912Z,26.80
2018-05-12T15:48:09.380Z,26.80
2018-05-12T15:50:37.631Z,26.70
2018-05-12T15:53:05.107Z,26.70
2018-05-12T15:55:32.572Z,26.80
2018-05-12T15:58:00.806Z,26.50
2018-05-12T16:00:28.282Z,26.40
2018-05-12T16:02:55.773Z,26.40
2018-05-12T16:05:24.027Z,26.80
2018-05-12T16:07:51.554Z,26.70
2018-05-12T16:10:19.003Z,26.90
2018-05-12T16:12:46.531Z,26.60
2018-05-12T16:15:14.032Z,26.40
2018-05-12T16:17:41.497Z,26.30
2018-05-12T16:20:08.975Z,26.40
2018-05-12T16:22:36.459Z,26.20
2018-05-12T16:25:03.919Z,26.20
2018-05-12T16:27:32.141Z,26.20
2018-05-12T16:29:59.663Z,26.20
2018-05-12T16:32:27.147Z,26.20
2018-05-12T16:34:54.685Z,26.20
2018-05-12T16:37:22.219Z,26.20
2018-05-12T16:39:49.621Z,26.10
2018-05-12T16:42:17.103Z,26.20
2018-05-12T16:44:44.588Z,26.20
2018-05-12T16:47:12.824Z,26.20
2018-05-12T16:49:40.306Z,26.20
2018-05-12T16:52:08.516Z,26.20
2018-05-12T16:54:35.997Z,26.20
2018-05-12T16:57:03.444Z,26.20
2018-05-12T16:59:30.890Z,26.20
2018-05-12T17:01:58.367Z,26.10
2018-05-12T17:04:25.833Z,26.00
2018-05-12T17:06:53.312Z,25.90
2018-05-12T17:09:20.750Z,25.80
2018-05-12T17:11:48.275Z,25.70
2018-05-12T17:14:15.723Z,25.70
2018-05-12T17:16:43.247Z,25.70
2018-05-12T17:19:11.488Z,25.70
2018-05-12T17:21:38.958Z,25.70
2018-05-12T17:24:06.449Z,25.60
2018-05-12T17:26:34.679Z,25.30
2018-05-12T17:29:02.126Z,25.30
2018-05-12T17:31:29.574Z,25.40
2018-05-12T17:33:57.036Z,25.40
2018-05-12T17:36:24.485Z,25.40
2018-05-12T17:38:51.954Z,25.50
2018-05-12T17:41:19.451Z,25.50
2018-05-12T17:43:46.934Z,25.40
2018-05-12T17:46:14.401Z,25.30
2018-05-12T17:48:41.877Z,25.40
2018-05-12T17:51:09.369Z,25.30
2018-05-12T17:53:36.918Z,25.20
2018-05-12T17:56:04.408Z,25.10
2018-05-12T17:58:32.648Z,25.00
2018-05-12T18:01:00.148Z,25.10
2018-05-12T18:03:28.385Z,25.00
2018-05-12T18:05:55.986Z,25.00
2018-05-12T18:08:23.484Z,25.10
2018-05-12T18:10:50.954Z,25.10
2018-05-12T18:13:19.104Z,25.00
2018-05-12T18:15:46.590Z,24.90
2018-05-12T18:18:14.105Z,24.80
2018-05-12T18:20:41.566Z,24.70
2018-05-12T18:23:09.092Z,24.60
2018-05-12T18:25:36.531Z,24.50
2018-05-12T18:28:03.990Z,24.50
2018-05-12T18:30:31.467Z,24.50
2018-05-12T18:32:59.690Z,24.40
2018-05-12T18:35:27.238Z,24.40
2018-05-12T18:37:54.804Z,24.40
2018-05-12T18:40:22.322Z,24.20
2018-05-12T18:42:49.866Z,24.20
2018-05-12T18:45:18.268Z,24.10
2018-05-12T18:47:45.850Z,24.00
2018-05-12T18:50:13.379Z,24.00
2018-05-12T18:52:41.671Z,23.80
2018-05-12T18:55:09.219Z,23.80
2018-05-12T18:57:36.852Z,23.80
2018-05-12T19:00:04.326Z,23.80
2018-05-12T19:02:31.856Z,23.80
2018-05-12T19:05:00.178Z,23.60
2018-05-12T19:07:27.679Z,23.50
2018-05-12T19:09:55.177Z,23.50
2018-05-12T19:12:23.429Z,23.40
2018-05-12T19:14:50.936Z,23.40
2018-05-12T19:17:18.401Z,23.40
2018-05-12T19:19:45.885Z,23.30
2018-05-12T19:22:13.417Z,23.40
2018-05-12T19:24:41.028Z,23.40
2018-05-12T19:27:08.643Z,23.20
2018-05-12T19:29:36.153Z,23.20
2018-05-12T19:32:04.695Z,23.10
2018-05-12T19:34:32.315Z,23.10
2018-05-12T19:36:59.849Z,22.90
2018-05-12T19:39:27.518Z,22.80
2018-05-12T19:41:55.065Z,22.80
2018-05-12T19:44:23.369Z,23.00
2018-05-12T19:46:50.912Z,23.00
2018-05-12T19:49:18.413Z,23.00
2018-05-12T19:51:45.927Z,22.90
2018-05-12T19:54:14.351Z,22.90
2018-05-12T19:56:41.865Z,22.90
2018-05-12T19:59:10.135Z,22.90
2018-05-12T20:01:39.142Z,22.70
2018-05-12T20:04:07.508Z,22.60
2018-05-12T20:06:35.746Z,22.50
2018-05-12T20:09:03.267Z,22.50
2018-05-12T20:11:31.542Z,22.30
2018-05-12T20:13:59.020Z,22.30
2018-05-12T20:16:26.653Z,22.10
2018-05-12T20:18:54.920Z,21.90
2018-05-12T20:21:23.183Z,22.00
2018-05-12T20:23:50.671Z,21.90
2018-05-12T20:26:18.154Z,22.00
2018-05-12T20:28:45.717Z,21.90
2018-05-12T20:31:13.254Z,21.80
2018-05-12T20:33:40.750Z,21.70
2018-05-12T20:36:08.297Z,21.60
2018-05-12T20:38:35.851Z,21.70
2018-05-12T20:41:04.002Z,21.60
2018-05-12T20:43:31.476Z,21.50
2018-05-12T20:45:59.680Z,21.50
2018-05-12T20:48:27.137Z,21.50
2018-05-12T20:50:54.632Z,21.40
2018-05-12T20:53:22.219Z,21.40
2018-05-12T20:55:49.698Z,21.40
2018-05-12T20:58:17.156Z,21.50
2018-05-12T21:00:44.915Z,21.30
2018-05-12T21:03:13.253Z,21.30
2018-05-12T21:05:41.489Z,21.20
2018-05-12T21:08:08.964Z,21.20
2018-05-12T21:10:37.214Z,21.00
2018-05-12T21:13:04.757Z,21.00
2018-05-12T21:15:32.212Z,21.00
2018-05-12T21:17:59.682Z,21.10
2018-05-12T21:20:27.280Z,21.10
2018-05-12T21:22:55.488Z,21.00
2018-05-12T21:25:22.938Z,20.90
2018-05-12T21:27:50.446Z,21.00
2018-05-12T21:30:17.932Z,21.00
2018-05-12T21:32:46.171Z,21.00
2018-05-12T21:35:13.642Z,21.00
2018-05-12T21:37:41.227Z,21.00
2018-05-12T21:40:09.604Z,21.00
2018-05-12T21:42:37.853Z,21.00
2018-05-12T21:45:05.339Z,21.00
2018-05-12T21:47:33.552Z,20.80
2018-05-12T21:50:01.022Z,20.80
2018-05-12T21:52:28.500Z,20.90
2018-05-12T21:54:56.094Z,20.80
2018-05-12T21:57:23.559Z,20.80
2018-05-12T21:59:51.050Z,20.80
2018-05-12T22:02:18.524Z,20.80
2018-05-12T22:04:45.982Z,20.80
2018-05-12T22:07:13.446Z,20.90
2018-05-12T22:09:40.893Z,21.00
2018-05-12T22:12:08.364Z,20.90
2018-05-12T22:14:35.819Z,20.80
2018-05-12T22:17:03.280Z,20.80
2018-05-12T22:19:30.735Z,20.70
2018-05-12T22:21:58.383Z,20.70
2018-05-12T22:24:26.640Z,20.60
2018-05-12T22:26:54.105Z,20.60
2018-05-12T22:29:21.583Z,20.50
2018-05-12T22:31:49.137Z,20.50
2018-05-12T22:34:17.393Z,20.30
2018-05-12T22:36:44.880Z,20.30
2018-05-12T22:39:12.448Z,20.30
2018-05-12T22:41:40.684Z,20.10
2018-05-12T22:44:08.160Z,20.10
2018-05-12T22:46:35.625Z,20.00
2018-05-12T22:49:03.079Z,19.90
2018-05-12T22:51:32.086Z,19.80
2018-05-12T22:54:00.431Z,19.70
2018-05-12T22:56:27.903Z,19.70
2018-05-12T22:58:55.353Z,19.60
2018-05-12T23:01:22.803Z,19.60
2018-05-12T23:03:50.284Z,19.50
2018-05-12T23:06:17.819Z,19.50
2018-05-12T23:08:45.273Z,19.40
2018-05-12T23:11:12.737Z,19.40
2018-05-12T23:13:40.188Z,19.40
2018-05-12T23:16:07.672Z,19.30
2018-05-12T23:18:35.129Z,19.30
2018-05-12T23:21:03.346Z,19.10
2018-05-12T23:23:30.804Z,19.10
2018-05-12T23:25:58.285Z,19.10
2018-05-12T23:28:25.773Z,19.10
2018-05-12T23:30:53.718Z,19.10
2018-05-12T23:33:21.172Z,19.10
2018-05-12T23:35:48.642Z,19.00
2018-05-12T23:38:16.089Z,19.00
2018-05-12T23:40:43.563Z,18.90
2018-05-12T23:43:11.097Z,18.80
2018-05-12T23:45:38.662Z,18.80
2018-05-12T23:48:06.137Z,18.80
2018-05-12T23:50:33.600Z,18.70
2018-05-12T23:53:01.072Z,18.70
2018-05-12T23:55:29.309Z,18.60
2018-05-12T23:57:56.774Z,18.60
